Time;durP1;ratioP1;P1;durP2;ratioP2;P2;SDS_P1;SDS_P2;PMS_P1;PMS_P2;Temp;Humidity;BMP_temperature;BMP_pressure;BME280_temperature;BME280_humidity;BME280_pressure;Samples;Min_cycle;Max_cycle;Signal;HPM_P1;HPM_P2
2022/04/18 00:02:34;;;;;;;8.23;5.55;;;;;;;;;;10460643;28;20422;-83
2022/04/18 00:07:36;;;;;;;6.95;5.85;;;;;;;;;;10461566;28;20394;-81
2022/04/18 00:12:37;;;;;;;7.13;5.60;;;;;;;;;;10462425;28;20402;-81
2022/04/18 00:17:41;;;;;;;8.52;6.00;;;;;;;;;;10461941;28;21062;-82
2022/04/18 00:22:44;;;;;;;8.10;5.97;;;;;;;;;;10462318;28;20549;-82
2022/04/18 00:27:46;;;;;;;8.20;5.40;;;;;;;;;;10461856;28;20481;-82
2022/04/18 00:32:49;;;;;;;6.28;4.90;;;;;;;;;;10461740;28;20475;-82
2022/04/18 00:37:51;;;;;;;7.13;5.07;;;;;;;;;;10461305;28;20480;-82
2022/04/18 00:43:01;;;;;;;5.90;4.63;;;;;;;;;;10461437;28;20437;-82
2022/04/18 00:48:05;;;;;;;7.72;5.32;;;;;;;;;;10461614;28;20468;-82
2022/04/18 00:53:07;;;;;;;9.05;5.95;;;;;;;;;;10461066;28;20880;-82
2022/04/18 00:58:11;;;;;;;9.27;7.37;;;;;;;;;;10461402;28;20457;-82
2022/04/18 01:03:14;;;;;;;9.77;7.07;;;;;;;;;;10460430;28;20474;-82
2022/04/18 01:08:16;;;;;;;9.73;7.30;;;;;;;;;;10461060;28;20446;-82
2022/04/18 01:13:18;;;;;;;12.73;7.43;;;;;;;;;;10460756;28;20487;-81
2022/04/18 01:18:21;;;;;;;12.68;7.78;;;;;;;;;;10469412;28;20429;-83
2022/04/18 01:23:25;;;;;;;12.20;7.80;;;;;;;;;;10465495;28;20511;-82
2022/04/18 01:33:46;;;;;;;14.43;7.90;;;;;;;;;;10467860;28;20924;-81
2022/04/18 01:38:49;;;;;;;12.40;7.40;;;;;;;;;;10468143;28;20498;-81
2022/04/18 01:43:51;;;;;;;10.60;7.83;;;;;;;;;;10467980;28;20515;-82
2022/04/18 01:48:53;;;;;;;8.32;6.72;;;;;;;;;;10463742;28;20411;-81
2022/04/18 01:53:56;;;;;;;8.73;6.63;;;;;;;;;;10467779;28;20411;-81
2022/04/18 01:58:58;;;;;;;9.63;7.13;;;;;;;;;;10467316;28;20444;-81
2022/04/18 02:04:00;;;;;;;10.02;6.80;;;;;;;;;;10451774;28;20413;-81
2022/04/18 02:09:03;;;;;;;7.37;6.30;;;;;;;;;;10448611;28;20786;-82
2022/04/18 02:14:05;;;;;;;9.25;6.15;;;;;;;;;;10447592;28;20496;-82
2022/04/18 02:19:07;;;;;;;7.55;5.88;;;;;;;;;;10447491;28;20488;-81
2022/04/18 02:24:10;;;;;;;7.00;5.63;;;;;;;;;;10447598;28;20418;-81
2022/04/18 02:29:12;;;;;;;9.37;5.43;;;;;;;;;;10442774;28;20982;-81
2022/04/18 02:34:13;;;;;;;10.20;5.38;;;;;;;;;;10443854;28;20492;-81
2022/04/18 02:39:16;;;;;;;6.80;5.10;;;;;;;;;;10445885;28;20435;-81
2022/04/18 02:44:18;;;;;;;6.75;5.07;;;;;;;;;;10446909;28;20450;-81
2022/04/18 02:49:20;;;;;;;7.43;4.93;;;;;;;;;;10446387;28;20869;-81
2022/04/18 02:54:23;;;;;;;6.15;5.20;;;;;;;;;;10446215;28;20496;-82
2022/04/18 02:59:25;;;;;;;8.85;5.22;;;;;;;;;;10445001;28;20561;-82
2022/04/18 03:04:27;;;;;;;7.25;5.38;;;;;;;;;;10444021;28;20451;-82
2022/04/18 03:09:31;;;;;;;6.00;4.95;;;;;;;;;;10445771;28;20490;-81
2022/04/18 03:14:33;;;;;;;7.17;5.10;;;;;;;;;;10445248;28;20452;-81
2022/04/18 03:19:35;;;;;;;7.68;5.53;;;;;;;;;;10445287;28;20549;-82
2022/04/18 03:24:38;;;;;;;8.77;5.93;;;;;;;;;;10487024;22;20445;-86
2022/04/18 03:29:40;;;;;;;9.70;6.35;;;;;;;;;;10485433;28;20410;-85
2022/04/18 03:34:42;;;;;;;10.07;6.40;;;;;;;;;;10485314;28;20463;-86
2022/04/18 03:39:51;;;;;;;10.05;6.25;;;;;;;;;;10499926;28;20909;-86
2022/04/18 03:44:53;;;;;;;10.13;6.70;;;;;;;;;;10527874;28;20488;-86
2022/04/18 03:49:55;;;;;;;10.35;7.00;;;;;;;;;;10528172;28;20444;-86
2022/04/18 03:54:58;;;;;;;11.80;7.55;;;;;;;;;;10526360;28;20839;-85
2022/04/18 04:00:00;;;;;;;11.00;7.60;;;;;;;;;;10485345;28;20551;-85
2022/04/18 04:05:02;;;;;;;10.47;7.90;;;;;;;;;;10472038;28;20498;-86
2022/04/18 04:10:07;;;;;;;11.67;7.60;;;;;;;;;;10513937;28;20406;-86
2022/04/18 04:15:10;;;;;;;12.45;7.43;;;;;;;;;;10524597;28;20479;-86
2022/04/18 04:20:12;;;;;;;13.27;7.60;;;;;;;;;;10524002;28;20896;-87
2022/04/18 04:25:16;;;;;;;11.87;7.60;;;;;;;;;;10524250;28;20950;-85
2022/04/18 04:30:17;;;;;;;12.88;7.72;;;;;;;;;;10521848;28;20435;-86
2022/04/18 04:35:19;;;;;;;13.63;7.53;;;;;;;;;;10524133;28;20942;-85
2022/04/18 04:40:22;;;;;;;12.80;8.00;;;;;;;;;;10524345;28;20553;-86
2022/04/18 04:45:24;;;;;;;13.93;7.35;;;;;;;;;;10524488;28;20423;-86
2022/04/18 04:50:26;;;;;;;11.52;7.18;;;;;;;;;;10523283;28;20396;-86
2022/04/18 04:55:29;;;;;;;10.33;6.90;;;;;;;;;;10523492;28;20483;-86
2022/04/18 05:00:31;;;;;;;13.40;7.22;;;;;;;;;;10523537;28;20543;-85
2022/04/18 05:05:33;;;;;;;11.38;6.80;;;;;;;;;;10522783;28;20400;-86
2022/04/18 05:10:36;;;;;;;9.90;6.60;;;;;;;;;;10523814;28;20483;-86
2022/04/18 05:15:38;;;;;;;11.00;6.25;;;;;;;;;;10523520;28;20931;-86
2022/04/18 05:20:40;;;;;;;11.00;6.68;;;;;;;;;;10522532;28;20435;-86
2022/04/18 05:25:43;;;;;;;12.13;5.83;;;;;;;;;;10522596;28;20430;-85
2022/04/18 05:30:45;;;;;;;7.75;5.35;;;;;;;;;;10522667;28;20805;-86
2022/04/18 05:35:47;;;;;;;7.57;5.18;;;;;;;;;;10522517;28;20968;-86
2022/04/18 05:40:50;;;;;;;13.00;5.33;;;;;;;;;;10513589;28;20919;-86
2022/04/18 05:45:52;;;;;;;13.33;5.50;;;;;;;;;;10520409;28;20889;-85
2022/04/18 05:50:54;;;;;;;6.97;5.13;;;;;;;;;;10515127;28;20838;-86
2022/04/18 05:55:57;;;;;;;10.48;5.47;;;;;;;;;;10518302;28;20410;-86
2022/04/18 06:00:59;;;;;;;9.20;4.53;;;;;;;;;;10522558;28;20420;-86
2022/04/18 06:06:01;;;;;;;6.75;4.57;;;;;;;;;;10528971;28;20486;-86
2022/04/18 06:11:04;;;;;;;6.72;4.75;;;;;;;;;;10527328;28;20440;-85
2022/04/18 06:16:06;;;;;;;6.82;4.47;;;;;;;;;;10528833;28;20435;-86
2022/04/18 06:21:08;;;;;;;6.50;4.43;;;;;;;;;;10523918;28;20507;-86
2022/04/18 06:26:11;;;;;;;7.30;4.70;;;;;;;;;;10499667;28;20441;-86
2022/04/18 06:31:13;;;;;;;6.72;4.25;;;;;;;;;;10479613;28;20578;-86
2022/04/18 06:36:15;;;;;;;8.70;4.07;;;;;;;;;;10479990;28;20484;-87
2022/04/18 06:41:18;;;;;;;5.25;4.00;;;;;;;;;;10477646;28;20464;-86
2022/04/18 06:46:20;;;;;;;4.50;3.33;;;;;;;;;;10471578;28;20482;-86
2022/04/18 06:51:22;;;;;;;6.60;3.63;;;;;;;;;;10481902;28;20418;-87
2022/04/18 07:01:46;;;;;;;7.53;3.67;;;;;;;;;;10482645;28;20527;-90
2022/04/18 07:06:48;;;;;;;6.37;3.10;;;;;;;;;;10468636;28;20416;-88
2022/04/18 07:11:52;;;;;;;3.97;2.90;;;;;;;;;;10528924;28;20480;-88
2022/04/18 07:16:54;;;;;;;4.07;2.83;;;;;;;;;;10521924;28;20404;-88
2022/04/18 07:22:03;;;;;;;3.55;3.00;;;;;;;;;;10469917;28;20436;-88
2022/04/18 07:27:06;;;;;;;3.63;2.78;;;;;;;;;;10475631;28;20418;-90
2022/04/18 07:32:08;;;;;;;4.00;2.83;;;;;;;;;;10476571;28;20428;-88
2022/04/18 07:37:10;;;;;;;4.30;2.70;;;;;;;;;;10468479;28;20806;-88
2022/04/18 07:42:14;;;;;;;5.32;2.60;;;;;;;;;;10474260;28;20463;-88
2022/04/18 07:47:15;;;;;;;5.28;2.75;;;;;;;;;;10473438;28;20756;-88
2022/04/18 07:52:17;;;;;;;3.13;2.53;;;;;;;;;;10470608;28;20520;-88
2022/04/18 07:57:20;;;;;;;5.68;3.00;;;;;;;;;;10472494;28;20501;-90
2022/04/18 08:02:23;;;;;;;4.30;3.05;;;;;;;;;;10467160;28;20489;-88
2022/04/18 08:07:25;;;;;;;8.63;3.40;;;;;;;;;;10476334;28;20507;-89
2022/04/18 08:12:29;;;;;;;5.10;2.97;;;;;;;;;;10470985;28;20408;-89
2022/04/18 08:17:30;;;;;;;4.93;3.27;;;;;;;;;;10465262;28;20434;-88
2022/04/18 08:22:32;;;;;;;4.00;3.28;;;;;;;;;;10475163;28;20429;-81
2022/04/18 08:27:36;;;;;;;5.45;3.45;;;;;;;;;;10488084;28;20495;-87
2022/04/18 08:32:38;;;;;;;4.15;3.05;;;;;;;;;;10481789;28;20424;-90
2022/04/18 08:37:40;;;;;;;5.43;3.58;;;;;;;;;;10503286;28;20467;-89
2022/04/18 08:42:43;;;;;;;4.60;3.40;;;;;;;;;;10486639;28;20497;-92
2022/04/18 08:53:09;;;;;;;7.10;3.33;;;;;;;;;;10458901;28;21956;-91
2022/04/18 08:58:14;;;;;;;5.68;3.78;;;;;;;;;;10486358;28;20830;-92
2022/04/18 09:03:17;;;;;;;6.83;3.93;;;;;;;;;;10479262;28;20433;-90
2022/04/18 09:08:19;;;;;;;7.07;3.53;;;;;;;;;;10499261;28;20440;-90
2022/04/18 09:13:24;;;;;;;4.90;3.10;;;;;;;;;;10477902;28;20398;-89
2022/04/18 09:18:27;;;;;;;7.22;3.97;;;;;;;;;;10472346;28;21404;-91
2022/04/18 09:23:30;;;;;;;5.82;3.47;;;;;;;;;;10468280;28;20425;-89
2022/04/18 09:28:35;;;;;;;5.95;3.60;;;;;;;;;;10467809;28;20416;-89
2022/04/18 09:33:44;;;;;;;6.18;3.90;;;;;;;;;;10496865;28;20443;-88
2022/04/18 09:38:49;;;;;;;5.88;4.20;;;;;;;;;;10513760;28;20455;-88
2022/04/18 09:43:53;;;;;;;5.80;3.88;;;;;;;;;;10480538;28;20531;-86
2022/04/18 09:49:02;;;;;;;5.20;4.18;;;;;;;;;;10486707;28;20404;-87
2022/04/18 09:54:05;;;;;;;5.43;4.10;;;;;;;;;;10476333;28;20413;-87
2022/04/18 09:59:14;;;;;;;5.70;4.40;;;;;;;;;;10467382;28;20431;-86
2022/04/18 10:04:17;;;;;;;6.27;4.20;;;;;;;;;;10469376;28;20425;-88
2022/04/18 10:09:20;;;;;;;5.87;3.97;;;;;;;;;;10485947;28;20422;-87
2022/04/18 10:14:23;;;;;;;6.30;4.05;;;;;;;;;;10505778;28;20846;-89
2022/04/18 10:19:47;;;;;;;6.70;4.40;;;;;;;;;;10519300;28;20763;-84
2022/04/18 10:25:06;;;;;;;6.10;4.05;;;;;;;;;;10517691;28;20514;-86
2022/04/18 10:30:13;;;;;;;7.23;4.23;;;;;;;;;;10514265;28;20788;-87
2022/04/18 10:35:15;;;;;;;5.35;3.97;;;;;;;;;;10516604;28;20470;-88
2022/04/18 10:40:18;;;;;;;5.15;3.42;;;;;;;;;;10523517;28;20400;-88
2022/04/18 10:45:23;;;;;;;6.85;3.85;;;;;;;;;;10526485;28;20515;-89
2022/04/18 10:50:28;;;;;;;6.68;4.03;;;;;;;;;;10498340;28;20448;-89
2022/04/18 10:55:30;;;;;;;5.93;3.80;;;;;;;;;;10515929;28;20411;-90
2022/04/18 11:00:48;;;;;;;6.47;3.60;;;;;;;;;;10507114;28;20455;-88
2022/04/18 11:05:50;;;;;;;5.88;3.70;;;;;;;;;;10497927;28;20448;-89
2022/04/18 11:10:54;;;;;;;5.70;3.70;;;;;;;;;;10518378;28;20420;-88
2022/04/18 11:16:25;;;;;;;5.35;3.83;;;;;;;;;;10552267;28;20412;-91
2022/04/18 11:22:12;;;;;;;5.00;3.30;;;;;;;;;;10501236;28;20443;-89
2022/04/18 11:27:16;;;;;;;6.93;3.87;;;;;;;;;;10407446;28;20977;-89
2022/04/18 11:32:21;;;;;;;6.43;3.80;;;;;;;;;;10520743;28;20496;-89
2022/04/18 11:37:24;;;;;;;6.17;3.70;;;;;;;;;;10509683;28;20420;-88
2022/04/18 11:42:28;;;;;;;5.50;3.30;;;;;;;;;;10525199;28;20424;-90
2022/04/18 11:47:36;;;;;;;5.32;3.63;;;;;;;;;;10518467;28;20473;-88
2022/04/18 11:52:40;;;;;;;5.65;4.10;;;;;;;;;;10508772;28;20500;-89
2022/04/18 11:57:44;;;;;;;4.63;4.15;;;;;;;;;;10525838;28;20412;-87
2022/04/18 12:08:08;;;;;;;6.72;4.68;;;;;;;;;;10479252;28;20401;-89
2022/04/18 12:13:12;;;;;;;6.65;4.20;;;;;;;;;;10466907;28;20406;-89
2022/04/18 12:18:17;;;;;;;7.18;4.10;;;;;;;;;;10517197;28;20491;-88
2022/04/18 12:23:20;;;;;;;5.82;3.88;;;;;;;;;;10504230;28;20431;-77
2022/04/18 12:28:24;;;;;;;5.53;3.90;;;;;;;;;;10521269;28;20396;-77
2022/04/18 12:33:30;;;;;;;10.60;4.28;;;;;;;;;;10520954;28;20400;-77
2022/04/18 12:38:34;;;;;;;6.27;3.90;;;;;;;;;;10523669;28;20410;-96
2022/04/18 12:43:37;;;;;;;5.85;3.80;;;;;;;;;;10520587;28;20492;-96
2022/04/18 12:48:41;;;;;;;4.82;3.90;;;;;;;;;;10535474;28;20431;-96
2022/04/18 12:53:48;;;;;;;4.80;3.55;;;;;;;;;;10494611;28;20501;-91
2022/04/18 12:58:51;;;;;;;6.03;3.60;;;;;;;;;;10506518;28;20405;-91
2022/04/18 13:03:56;;;;;;;4.57;3.17;;;;;;;;;;10480605;28;20501;-89
2022/04/18 13:08:59;;;;;;;5.60;3.72;;;;;;;;;;10504697;28;20500;-87
2022/04/18 13:14:03;;;;;;;4.95;3.70;;;;;;;;;;10520591;28;20761;-89
2022/04/18 13:19:09;;;;;;;4.88;3.35;;;;;;;;;;10516753;28;20417;-89
2022/04/18 13:24:11;;;;;;;4.22;3.03;;;;;;;;;;10513476;28;20415;-88
2022/04/18 13:29:13;;;;;;;3.80;3.17;;;;;;;;;;10524960;28;20419;-89
2022/04/18 13:34:16;;;;;;;3.27;2.97;;;;;;;;;;10519021;28;20547;-88
2022/04/18 13:39:18;;;;;;;3.50;2.90;;;;;;;;;;10516179;28;20487;-90
2022/04/18 13:44:21;;;;;;;6.90;3.22;;;;;;;;;;10526228;28;20430;-90
2022/04/18 13:49:24;;;;;;;4.40;3.28;;;;;;;;;;10483253;28;20891;-90
2022/04/18 13:54:26;;;;;;;4.60;3.47;;;;;;;;;;10522996;28;20403;-89
2022/04/18 13:59:28;;;;;;;3.35;2.85;;;;;;;;;;10513327;28;20495;-88
2022/04/18 14:04:36;;;;;;;3.20;2.72;;;;;;;;;;10499592;28;20477;-90
2022/04/18 14:09:38;;;;;;;5.53;2.83;;;;;;;;;;10516731;28;20399;-89
2022/04/18 14:25:20;;;;;;;5.40;3.03;;;;;;;;;;10522118;28;20408;-88
2022/04/18 14:30:22;;;;;;;4.20;3.20;;;;;;;;;;10525054;28;20396;-90
2022/04/18 14:35:25;;;;;;;3.90;2.90;;;;;;;;;;10509047;28;20480;-91
2022/04/18 14:40:28;;;;;;;5.43;3.38;;;;;;;;;;10498226;28;20451;-89
2022/04/18 14:45:30;;;;;;;3.60;3.00;;;;;;;;;;10519413;28;21166;-88
2022/04/18 14:50:34;;;;;;;3.90;3.10;;;;;;;;;;10505690;28;20406;-90
2022/04/18 14:55:36;;;;;;;5.88;3.30;;;;;;;;;;10524102;28;20420;-93
2022/04/18 15:00:39;;;;;;;5.40;3.45;;;;;;;;;;10486881;28;20504;-89
2022/04/18 15:05:43;;;;;;;7.35;3.55;;;;;;;;;;10475255;28;20921;-90
2022/04/18 15:10:45;;;;;;;3.70;3.30;;;;;;;;;;10477479;28;20479;-90
2022/04/18 15:15:47;;;;;;;3.80;2.93;;;;;;;;;;10473856;28;20512;-90
2022/04/18 15:20:51;;;;;;;3.80;2.78;;;;;;;;;;10478953;28;20432;-90
2022/04/18 15:25:53;;;;;;;5.15;3.78;;;;;;;;;;10470272;28;21250;-87
2022/04/18 15:36:16;;;;;;;6.20;3.40;;;;;;;;;;10452280;28;21008;-88
2022/04/18 15:41:18;;;;;;;3.65;3.00;;;;;;;;;;10455204;28;20430;-89
2022/04/18 15:46:20;;;;;;;4.38;3.20;;;;;;;;;;10448676;28;20426;-89
2022/04/18 15:51:24;;;;;;;4.93;3.28;;;;;;;;;;10445233;28;20414;-88
2022/04/18 15:56:26;;;;;;;4.03;3.17;;;;;;;;;;10444393;28;20422;-88
2022/04/18 16:01:29;;;;;;;5.25;3.35;;;;;;;;;;10446032;28;20504;-86
2022/04/18 16:06:33;;;;;;;5.00;3.45;;;;;;;;;;10442173;28;20433;-85
2022/04/18 16:11:34;;;;;;;7.15;4.10;;;;;;;;;;10443473;28;20498;-85
2022/04/18 16:16:37;;;;;;;3.85;3.20;;;;;;;;;;10444980;28;20402;-85
2022/04/18 16:21:41;;;;;;;5.17;2.90;;;;;;;;;;10441782;28;20429;-86
2022/04/18 16:26:43;;;;;;;3.57;2.60;;;;;;;;;;10458581;28;20420;-87
2022/04/18 16:31:51;;;;;;;3.70;2.72;;;;;;;;;;10441110;28;20477;-85
2022/04/18 16:36:55;;;;;;;4.38;2.58;;;;;;;;;;10448091;28;20521;-86
2022/04/18 16:47:16;;;;;;;3.00;2.30;;;;;;;;;;10445586;28;20400;-85
2022/04/18 16:52:19;;;;;;;2.93;2.10;;;;;;;;;;10453919;28;20894;-85
2022/04/18 16:57:22;;;;;;;4.80;2.40;;;;;;;;;;10474334;28;20505;-85
2022/04/18 17:02:24;;;;;;;2.47;1.97;;;;;;;;;;10459301;28;20411;-87
2022/04/18 17:07:27;;;;;;;2.70;2.10;;;;;;;;;;10456010;28;20507;-87
2022/04/18 17:12:29;;;;;;;2.55;2.13;;;;;;;;;;10448391;28;20403;-85
2022/04/18 17:17:31;;;;;;;2.55;2.05;;;;;;;;;;10467403;28;20988;-86
2022/04/18 17:22:37;;;;;;;3.00;1.93;;;;;;;;;;10462753;28;20522;-85
2022/04/18 17:27:39;;;;;;;3.65;2.00;;;;;;;;;;10460694;28;20447;-84
2022/04/18 17:32:41;;;;;;;3.70;2.20;;;;;;;;;;10454975;28;20814;-86
2022/04/18 17:37:44;;;;;;;4.50;2.30;;;;;;;;;;10449151;28;20453;-86
2022/04/18 17:42:46;;;;;;;3.75;2.20;;;;;;;;;;10462804;28;20933;-87
2022/04/18 17:47:50;;;;;;;3.37;2.13;;;;;;;;;;10445912;28;20431;-85
2022/04/18 17:52:54;;;;;;;3.10;2.20;;;;;;;;;;10455012;28;21038;-87
2022/04/18 17:57:57;;;;;;;2.78;2.03;;;;;;;;;;10456541;28;20998;-85
2022/04/18 18:02:59;;;;;;;5.13;2.40;;;;;;;;;;10457660;28;20423;-86
2022/04/18 18:08:03;;;;;;;3.60;2.40;;;;;;;;;;10467665;28;20427;-87
2022/04/18 18:13:05;;;;;;;4.55;2.90;;;;;;;;;;10468540;28;20492;-86
2022/04/18 18:18:07;;;;;;;2.40;2.20;;;;;;;;;;10485778;28;20508;-87
2022/04/18 18:23:11;;;;;;;2.92;2.10;;;;;;;;;;10487147;28;20424;-87
2022/04/18 18:28:13;;;;;;;3.08;2.13;;;;;;;;;;10496551;28;20899;-88
2022/04/18 18:33:17;;;;;;;4.97;2.30;;;;;;;;;;10492218;28;20430;-85
2022/04/18 18:38:23;;;;;;;2.57;2.13;;;;;;;;;;10486595;28;20475;-88
2022/04/18 18:43:25;;;;;;;3.60;2.77;;;;;;;;;;10485660;28;20432;-86
2022/04/18 18:48:27;;;;;;;4.60;2.88;;;;;;;;;;10476901;28;20396;-86
2022/04/18 18:53:31;;;;;;;4.75;3.30;;;;;;;;;;10483198;28;20409;-86
2022/04/18 18:58:33;;;;;;;4.25;3.10;;;;;;;;;;10483948;28;20416;-88
2022/04/18 19:03:35;;;;;;;4.80;3.10;;;;;;;;;;10481200;28;20860;-87
2022/04/18 19:08:38;;;;;;;3.50;2.92;;;;;;;;;;10482653;28;20426;-87
2022/04/18 19:13:40;;;;;;;3.88;2.90;;;;;;;;;;10479814;28;20460;-88
2022/04/18 19:29:22;;;;;;;4.07;2.90;;;;;;;;;;10482255;28;20416;-87
2022/04/18 19:34:24;;;;;;;3.53;2.40;;;;;;;;;;10476728;28;21158;-86
2022/04/18 19:39:30;;;;;;;5.00;3.80;;;;;;;;;;10479803;28;20412;-86
2022/04/18 19:44:31;;;;;;;5.70;4.50;;;;;;;;;;10481065;28;20430;-87
2022/04/18 19:49:33;;;;;;;4.70;3.90;;;;;;;;;;10481826;28;20426;-87
2022/04/18 19:54:36;;;;;;;7.53;3.80;;;;;;;;;;10481389;28;20506;-89
2022/04/18 19:59:38;;;;;;;8.40;6.43;;;;;;;;;;10477814;28;20442;-88
2022/04/18 20:04:41;;;;;;;5.60;4.43;;;;;;;;;;10487262;28;20539;-88
2022/04/18 20:09:45;;;;;;;4.80;3.27;;;;;;;;;;10487093;28;20497;-89
2022/04/18 20:14:47;;;;;;;4.53;3.22;;;;;;;;;;10498323;28;20474;-86
2022/04/18 20:19:49;;;;;;;4.50;3.15;;;;;;;;;;10503641;28;20465;-88
2022/04/18 20:24:52;;;;;;;4.50;3.30;;;;;;;;;;10468298;28;20520;-89
2022/04/18 20:29:54;;;;;;;5.57;3.20;;;;;;;;;;10488863;28;20450;-89
2022/04/18 20:34:56;;;;;;;4.90;3.63;;;;;;;;;;10457401;28;20412;-90
2022/04/18 20:40:03;;;;;;;4.18;3.03;;;;;;;;;;10458857;28;20657;-87
2022/04/18 20:45:07;;;;;;;5.23;3.40;;;;;;;;;;10456150;28;20415;-89
2022/04/18 20:50:11;;;;;;;4.57;3.97;;;;;;;;;;10457758;28;20508;-89
2022/04/18 21:00:33;;;;;;;4.33;3.60;;;;;;;;;;10462505;28;20881;-89
2022/04/18 21:05:35;;;;;;;5.47;3.50;;;;;;;;;;10464519;28;20420;-89
2022/04/18 21:10:39;;;;;;;4.40;3.38;;;;;;;;;;10457038;28;20470;-90
2022/04/18 21:15:41;;;;;;;3.40;2.93;;;;;;;;;;10474953;28;20473;-89
2022/04/18 21:20:44;;;;;;;5.30;3.67;;;;;;;;;;10460591;28;20403;-90
2022/04/18 21:25:48;;;;;;;5.40;3.72;;;;;;;;;;10452576;28;20431;-90
2022/04/18 21:30:50;;;;;;;4.85;3.70;;;;;;;;;;10463172;28;20425;-90
2022/04/18 21:35:53;;;;;;;5.50;3.90;;;;;;;;;;10473816;28;20485;-90
2022/04/18 21:40:56;;;;;;;4.72;3.97;;;;;;;;;;10472684;28;21276;-88
2022/04/18 21:45:58;;;;;;;5.38;4.15;;;;;;;;;;10455725;28;20411;-90
2022/04/18 21:51:00;;;;;;;4.97;4.17;;;;;;;;;;10466812;28;20848;-89
2022/04/18 21:56:04;;;;;;;6.70;4.13;;;;;;;;;;10473829;28;20520;-90
2022/04/18 22:01:07;;;;;;;6.70;3.90;;;;;;;;;;10468511;28;20510;-91
2022/04/18 22:06:09;;;;;;;6.03;4.00;;;;;;;;;;10528820;28;20507;-90
2022/04/18 22:11:13;;;;;;;5.13;3.80;;;;;;;;;;10490911;28;20707;-90
2022/04/18 22:16:14;;;;;;;5.00;3.78;;;;;;;;;;10531692;28;20427;-91
2022/04/18 22:26:38;;;;;;;5.60;4.03;;;;;;;;;;10526428;28;20400;-91
2022/04/18 22:31:40;;;;;;;6.20;3.60;;;;;;;;;;10527781;28;20458;-91
2022/04/18 22:36:43;;;;;;;5.68;3.60;;;;;;;;;;10530689;28;20526;-91
2022/04/18 22:41:47;;;;;;;4.85;3.25;;;;;;;;;;10531665;28;20412;-90
2022/04/18 22:46:48;;;;;;;4.53;3.65;;;;;;;;;;10497052;28;20508;-89
2022/04/18 22:51:51;;;;;;;5.27;3.60;;;;;;;;;;10469509;28;20432;-89
2022/04/18 22:56:54;;;;;;;4.80;3.50;;;;;;;;;;10473104;28;20414;-89
2022/04/18 23:01:56;;;;;;;4.43;3.60;;;;;;;;;;10479896;28;20520;-89
2022/04/18 23:06:58;;;;;;;5.30;3.73;;;;;;;;;;10469607;28;20667;-89
2022/04/18 23:12:01;;;;;;;5.10;3.63;;;;;;;;;;10471351;28;20404;-89
2022/04/18 23:17:03;;;;;;;5.67;3.67;;;;;;;;;;10470147;28;20404;-89
2022/04/18 23:22:05;;;;;;;4.17;3.60;;;;;;;;;;10473703;28;20444;-90
2022/04/18 23:27:09;;;;;;;4.10;3.50;;;;;;;;;;10476466;28;20467;-89
2022/04/18 23:32:11;;;;;;;5.13;3.50;;;;;;;;;;10468946;28;20530;-89
2022/04/18 23:37:14;;;;;;;5.47;3.70;;;;;;;;;;10486616;28;20461;-88
2022/04/18 23:42:17;;;;;;;4.37;3.60;;;;;;;;;;10485019;28;20473;-88
2022/04/18 23:47:19;;;;;;;14.70;7.13;;;;;;;;;;10471032;28;20511;-88
2022/04/18 23:52:21;;;;;;;9.65;6.43;;;;;;;;;;10475454;28;20949;-88
2022/04/18 23:57:24;;;;;;;9.68;5.78;;;;;;;;;;10468920;28;20455;-89
